createdAt,value
2022-08-01T00:01:56.775Z,20.70
2022-08-01T00:04:23.215Z,21.45
2022-08-01T00:06:49.674Z,21.67
2022-08-01T00:09:24.106Z,22.52
2022-08-01T00:11:59.684Z,21.83
2022-08-01T00:14:32.711Z,22.30
2022-08-01T00:17:05.170Z,23.13
2022-08-01T00:19:33.860Z,23.92
2022-08-01T00:22:00.339Z,24.33
2022-08-01T00:24:26.766Z,23.77
2022-08-01T00:26:53.191Z,25.67
2022-08-01T00:30:09.490Z,25.45
2022-08-01T00:32:06.472Z,24.67
2022-08-01T00:34:33.190Z,25.30
2022-08-01T00:36:59.634Z,24.23
2022-08-01T00:39:26.043Z,25.55
2022-08-01T00:41:59.790Z,25.50
2022-08-01T00:44:26.944Z,26.02
2022-08-01T00:46:53.382Z,25.83
2022-08-01T00:49:19.857Z,25.77
2022-08-01T00:51:46.341Z,25.08
2022-08-01T00:54:13.256Z,27.35
2022-08-01T00:56:42.997Z,28.15
2022-08-01T00:59:10.036Z,29.27
2022-08-01T01:01:39.432Z,29.23
2022-08-01T01:04:08.582Z,29.08
2022-08-01T01:07:01.044Z,31.05
2022-08-01T01:09:30.275Z,29.85
2022-08-01T01:12:17.759Z,28.90
2022-08-01T01:15:03.904Z,29.27
2022-08-01T01:17:50.630Z,29.13
2022-08-01T01:20:18.594Z,28.85
2022-08-01T01:22:54.109Z,29.27
2022-08-01T01:25:37.676Z,28.95
2022-08-01T01:28:21.393Z,28.40
2022-08-01T01:30:51.728Z,28.80
2022-08-01T01:33:18.602Z,27.92
2022-08-01T01:35:48.908Z,26.27
2022-08-01T01:38:23.215Z,25.38
2022-08-01T01:40:51.615Z,27.08
2022-08-01T01:43:18.175Z,26.40
2022-08-01T01:45:45.780Z,26.02
2022-08-01T01:48:14.849Z,26.02
2022-08-01T01:50:42.268Z,25.27
2022-08-01T01:53:08.940Z,25.42
2022-08-01T01:55:49.314Z,26.08
2022-08-01T01:58:17.193Z,27.70
2022-08-01T02:00:45.724Z,29.08
2022-08-01T02:03:13.443Z,28.83
2022-08-01T02:05:40.790Z,28.35
2022-08-01T02:08:07.940Z,28.88
2022-08-01T02:10:35.241Z,30.65
2022-08-01T02:13:04.228Z,28.58
2022-08-01T02:15:31.461Z,29.23
2022-08-01T02:17:58.702Z,28.27
2022-08-01T02:20:27.323Z,29.10
2022-08-01T02:22:58.904Z,28.73
2022-08-01T02:25:28.366Z,30.30
2022-08-01T02:28:09.108Z,30.05
2022-08-01T02:30:37.494Z,29.88
2022-08-01T02:33:15.531Z,30.02
2022-08-01T02:36:32.564Z,28.00
2022-08-01T02:38:32.618Z,26.90
2022-08-01T02:41:03.538Z,27.38
2022-08-01T02:43:31.188Z,26.67
2022-08-01T02:46:01.489Z,28.52
2022-08-01T02:48:28.187Z,28.20
2022-08-01T02:50:56.896Z,29.25
2022-08-01T02:53:44.224Z,27.10
2022-08-01T02:56:12.941Z,28.42
2022-08-01T02:58:40.306Z,27.67
2022-08-01T03:01:08.252Z,27.85
2022-08-01T03:03:35.229Z,29.30
2022-08-01T03:06:02.800Z,27.27
2022-08-01T03:08:30.791Z,26.92
2022-08-01T03:10:58.130Z,27.42
2022-08-01T03:13:26.331Z,28.33
2022-08-01T03:15:53.242Z,28.67
2022-08-01T03:18:19.785Z,28.42
2022-08-01T03:20:46.696Z,27.65
2022-08-01T03:23:13.756Z,26.80
2022-08-01T03:25:41.862Z,26.90
2022-08-01T03:28:09.450Z,24.88
2022-08-01T03:30:37.898Z,23.90
2022-08-01T03:33:04.544Z,21.92
2022-08-01T03:35:34.808Z,21.10
2022-08-01T03:38:17.460Z,20.98
2022-08-01T03:40:54.449Z,19.67
2022-08-01T03:43:29.010Z,19.73
2022-08-01T03:45:57.656Z,18.42
2022-08-01T03:48:29.141Z,18.52
2022-08-01T03:50:56.371Z,18.02
2022-08-01T03:53:27.316Z,18.15
2022-08-01T03:55:54.362Z,17.67
2022-08-01T03:58:21.429Z,16.88
2022-08-01T04:00:48.607Z,15.85
2022-08-01T04:03:15.488Z,14.73
2022-08-01T04:05:43.210Z,14.00
2022-08-01T04:08:09.697Z,13.07
2022-08-01T04:10:36.271Z,14.55
2022-08-01T04:13:02.873Z,13.05
2022-08-01T04:15:29.409Z,12.82
2022-08-01T04:17:55.814Z,13.07
2022-08-01T04:20:22.300Z,13.60
2022-08-01T04:22:48.839Z,13.10
2022-08-01T04:25:27.577Z,13.70
2022-08-01T04:27:54.541Z,13.60
2022-08-01T04:30:27.367Z,13.18
2022-08-01T04:32:55.905Z,13.45
2022-08-01T04:36:02.778Z,13.55
2022-08-01T04:38:10.261Z,12.65
2022-08-01T04:40:37.208Z,12.93
2022-08-01T04:43:03.972Z,11.88
2022-08-01T04:45:30.680Z,12.30
2022-08-01T04:47:58.462Z,11.77
2022-08-01T04:50:25.384Z,12.52
2022-08-01T04:52:52.569Z,12.43
2022-08-01T04:55:19.025Z,13.13
2022-08-01T04:57:47.580Z,12.98
2022-08-01T05:00:14.892Z,12.40
2022-08-01T05:02:41.296Z,12.30
2022-08-01T05:05:08.128Z,11.05
2022-08-01T05:07:45.093Z,11.90
2022-08-01T05:10:12.078Z,11.52
2022-08-01T05:12:38.480Z,11.07
2022-08-01T05:15:05.627Z,11.10
2022-08-01T05:17:32.545Z,11.43
2022-08-01T05:19:59.015Z,10.60
2022-08-01T05:22:26.490Z,10.98
2022-08-01T05:24:53.639Z,10.43
2022-08-01T05:27:20.504Z,9.05
2022-08-01T05:29:48.014Z,8.75
2022-08-01T05:32:14.497Z,8.57
2022-08-01T05:34:40.935Z,9.48
2022-08-01T05:37:08.303Z,8.85
2022-08-01T05:39:34.691Z,8.38
2022-08-01T05:42:01.161Z,8.52
2022-08-01T05:44:27.650Z,8.05
2022-08-01T05:46:54.095Z,7.32
2022-08-01T05:49:20.622Z,7.53
2022-08-01T05:51:47.195Z,7.03
2022-08-01T05:54:13.724Z,8.20
2022-08-01T05:56:40.152Z,7.00
2022-08-01T05:59:06.548Z,6.50
2022-08-01T06:01:33.152Z,6.60
2022-08-01T06:03:59.563Z,6.28
2022-08-01T06:06:26.684Z,6.40
2022-08-01T06:08:53.147Z,6.82
2022-08-01T06:11:19.595Z,8.02
2022-08-01T06:13:48.469Z,8.23
2022-08-01T06:16:15.752Z,8.85
2022-08-01T06:18:42.207Z,9.05
2022-08-01T06:21:08.632Z,9.02
2022-08-01T06:23:35.029Z,9.70
2022-08-01T06:26:01.683Z,8.82
2022-08-01T06:28:28.104Z,8.02
2022-08-01T06:30:54.554Z,9.75
2022-08-01T06:33:21.002Z,8.90
2022-08-01T06:35:47.465Z,9.82
2022-08-01T06:38:14.799Z,9.43
2022-08-01T06:40:41.240Z,9.05
2022-08-01T06:43:07.663Z,9.52
2022-08-01T06:45:34.157Z,9.38
2022-08-01T06:48:00.552Z,11.07
2022-08-01T06:50:26.952Z,11.77
2022-08-01T06:52:53.350Z,13.00
2022-08-01T06:55:20.713Z,13.80
2022-08-01T06:57:52.158Z,14.50
2022-08-01T07:00:23.117Z,13.18
2022-08-01T07:02:51.033Z,12.52
2022-08-01T07:05:17.769Z,12.57
2022-08-01T07:07:44.457Z,11.93
2022-08-01T07:10:11.274Z,12.60
2022-08-01T07:12:38.999Z,11.07
2022-08-01T07:15:06.470Z,10.20
2022-08-01T07:17:32.864Z,7.85
2022-08-01T07:19:59.258Z,8.98
2022-08-01T07:22:25.696Z,9.40
2022-08-01T07:24:54.454Z,9.35
2022-08-01T07:27:21.331Z,9.45
2022-08-01T07:29:52.295Z,10.10
2022-08-01T07:32:20.017Z,8.55
2022-08-01T07:34:46.704Z,8.57
2022-08-01T07:37:13.133Z,8.85
2022-08-01T07:39:39.536Z,8.40
2022-08-01T07:42:08.244Z,8.07
2022-08-01T07:44:35.920Z,8.13
2022-08-01T07:47:02.418Z,7.40
2022-08-01T07:49:29.130Z,5.78
2022-08-01T07:52:03.710Z,5.97
2022-08-01T07:54:33.516Z,5.85
2022-08-01T07:57:00.839Z,6.32
2022-08-01T07:59:27.240Z,6.05
2022-08-01T08:01:53.783Z,6.10
2022-08-01T08:04:20.236Z,5.35
2022-08-01T08:06:48.439Z,5.03
2022-08-01T08:09:15.630Z,6.18
2022-08-01T08:11:47.183Z,6.65
2022-08-01T08:14:14.445Z,9.32
2022-08-01T08:16:40.944Z,11.27
2022-08-01T08:19:07.349Z,9.25
2022-08-01T08:21:33.811Z,7.53
2022-08-01T08:24:18.945Z,7.30
2022-08-01T08:26:45.360Z,5.13
2022-08-01T08:29:11.905Z,4.88
2022-08-01T08:31:52.053Z,3.72
2022-08-01T08:34:19.628Z,3.88
2022-08-01T08:36:47.966Z,2.80
2022-08-01T08:39:14.743Z,1.90
2022-08-01T08:41:41.857Z,2.47
2022-08-01T08:44:10.349Z,2.38
2022-08-01T08:46:45.763Z,2.10
2022-08-01T08:49:13.862Z,1.75
2022-08-01T08:51:42.394Z,1.50
2022-08-01T08:54:11.791Z,2.17
2022-08-01T08:56:38.622Z,2.42
2022-08-01T08:59:05.274Z,1.65
2022-08-01T09:01:36.191Z,2.50
2022-08-01T09:04:05.663Z,3.03
2022-08-01T09:06:32.698Z,2.67
2022-08-01T09:08:59.649Z,2.70
2022-08-01T09:11:26.494Z,2.60
2022-08-01T09:14:26.579Z,2.20
2022-08-01T09:17:07.464Z,2.15
2022-08-01T09:20:03.480Z,2.22
2022-08-01T09:22:33.629Z,2.20
2022-08-01T09:25:02.644Z,1.70
2022-08-01T09:27:29.189Z,2.20
2022-08-01T09:30:11.385Z,2.00
2022-08-01T09:33:11.554Z,1.92
2022-08-01T09:35:46.276Z,1.98
2022-08-01T09:38:20.507Z,1.55
2022-08-01T09:40:54.731Z,1.90
2022-08-01T09:43:24.491Z,2.55
2022-08-01T09:45:53.434Z,2.30
2022-08-01T09:48:22.522Z,1.33
2022-08-01T09:50:53.321Z,1.30
2022-08-01T09:53:29.927Z,1.08
2022-08-01T09:56:09.652Z,1.00
2022-08-01T09:59:02.056Z,0.95
2022-08-01T10:01:43.203Z,1.10
2022-08-01T10:04:15.150Z,1.25
2022-08-01T10:06:45.022Z,1.30
2022-08-01T10:09:14.017Z,1.40
2022-08-01T10:11:42.621Z,1.48
2022-08-01T10:14:09.169Z,1.48
2022-08-01T10:16:38.595Z,1.58
2022-08-01T10:19:14.506Z,1.73
2022-08-01T10:21:56.343Z,2.15
2022-08-01T10:24:26.827Z,1.50
2022-08-01T10:26:57.949Z,2.17
2022-08-01T10:29:46.288Z,1.27
2022-08-01T10:32:11.565Z,1.63
2022-08-01T10:34:38.352Z,0.98
2022-08-01T10:37:11.301Z,1.20
2022-08-01T10:39:37.935Z,1.10
2022-08-01T10:42:10.505Z,1.00
2022-08-01T10:44:37.673Z,0.90
2022-08-01T10:47:13.223Z,0.95
2022-08-01T10:50:04.930Z,0.82
2022-08-01T10:52:31.476Z,0.90
2022-08-01T10:55:05.180Z,1.08
2022-08-01T10:57:52.647Z,1.02
2022-08-01T11:00:21.373Z,0.95
2022-08-01T11:03:04.320Z,0.70
2022-08-01T11:05:35.938Z,0.60
2022-08-01T11:08:04.860Z,0.80
2022-08-01T11:10:45.404Z,0.70
2022-08-01T11:13:12.463Z,0.80
2022-08-01T11:15:50.008Z,0.52
2022-08-01T11:18:29.690Z,0.60
2022-08-01T11:21:56.288Z,0.80
2022-08-01T11:23:50.547Z,0.50
2022-08-01T11:26:17.704Z,0.55
2022-08-01T11:29:05.030Z,0.40
2022-08-01T11:31:37.528Z,0.50
2022-08-01T11:34:04.611Z,0.40
2022-08-01T11:36:55.875Z,0.60
2022-08-01T11:39:18.702Z,0.60
2022-08-01T11:41:49.091Z,0.60
2022-08-01T11:44:21.235Z,0.80
2022-08-01T11:47:11.543Z,0.70
2022-08-01T11:49:48.928Z,0.60
2022-08-01T11:52:30.898Z,0.90
2022-08-01T11:54:59.512Z,1.00
2022-08-01T11:57:34.132Z,0.80
2022-08-01T12:00:15.140Z,0.80
2022-08-01T12:02:45.473Z,1.13
2022-08-01T12:05:15.182Z,1.02
2022-08-01T12:07:43.530Z,0.77
2022-08-01T12:10:12.342Z,0.70
2022-08-01T12:12:43.791Z,0.60
2022-08-01T12:15:10.869Z,0.75
2022-08-01T12:17:40.666Z,0.70
2022-08-01T12:20:15.425Z,1.15
2022-08-01T12:22:44.301Z,0.73
2022-08-01T12:25:10.890Z,1.45
2022-08-01T12:27:38.749Z,0.70
2022-08-01T12:30:11.477Z,0.73
2022-08-01T12:32:40.395Z,0.68
2022-08-01T12:35:18.702Z,0.63
2022-08-01T12:37:50.016Z,0.40
2022-08-01T12:40:22.055Z,1.73
2022-08-01T12:42:50.636Z,1.00
2022-08-01T12:45:26.167Z,2.03
2022-08-01T12:47:53.661Z,0.73
2022-08-01T12:50:22.574Z,0.63
2022-08-01T12:52:50.550Z,1.08
2022-08-01T12:55:18.728Z,0.60
2022-08-01T12:57:54.018Z,0.63
2022-08-01T13:00:25.936Z,0.80
2022-08-01T13:03:11.078Z,1.45
2022-08-01T13:05:49.895Z,0.93
2022-08-01T13:08:22.475Z,0.88
2022-08-01T13:10:49.559Z,0.60
2022-08-01T13:13:27.905Z,0.80
2022-08-01T13:16:04.697Z,0.82
2022-08-01T13:18:33.399Z,0.88
2022-08-01T13:21:16.429Z,1.15
2022-08-01T13:24:13.427Z,1.02
2022-08-01T13:26:43.762Z,0.90
2022-08-01T13:29:11.790Z,1.02
2022-08-01T13:31:39.441Z,1.10
2022-08-01T13:34:05.888Z,0.93
2022-08-01T13:36:32.428Z,1.40
2022-08-01T13:39:18.817Z,1.35
2022-08-01T13:41:46.260Z,1.80
2022-08-01T13:44:12.729Z,2.25
2022-08-01T13:46:39.437Z,3.13
2022-08-01T13:49:16.584Z,6.28
2022-08-01T13:51:43.544Z,3.42
2022-08-01T13:54:10.104Z,1.45
2022-08-01T13:56:36.782Z,1.25
2022-08-01T13:59:03.312Z,1.77
2022-08-01T14:01:34.013Z,1.20
2022-08-01T14:04:00.973Z,1.30
2022-08-01T14:06:27.752Z,1.20
2022-08-01T14:08:54.168Z,1.02
2022-08-01T14:11:20.668Z,1.17
2022-08-01T14:13:47.873Z,1.20
2022-08-01T14:16:14.877Z,1.75
2022-08-01T14:18:41.895Z,1.85
2022-08-01T14:21:10.944Z,1.42
2022-08-01T14:23:37.390Z,1.70
2022-08-01T14:26:08.434Z,1.90
2022-08-01T14:28:38.555Z,2.28
2022-08-01T14:31:07.022Z,1.02
2022-08-01T14:33:34.366Z,2.13
2022-08-01T14:36:20.599Z,1.67
2022-08-01T14:38:47.322Z,1.40
2022-08-01T14:41:15.546Z,1.45
2022-08-01T14:43:41.937Z,1.50
2022-08-01T14:46:10.708Z,1.40
2022-08-01T14:48:37.105Z,2.30
2022-08-01T14:51:03.950Z,1.75
2022-08-01T14:53:31.087Z,1.50
2022-08-01T14:55:57.521Z,1.70
2022-08-01T14:58:23.917Z,1.30
2022-08-01T15:00:52.459Z,1.60
2022-08-01T15:03:22.393Z,1.35
2022-08-01T15:05:48.803Z,1.90
2022-08-01T15:08:15.251Z,1.40
2022-08-01T15:10:41.772Z,1.55
2022-08-01T15:13:08.690Z,1.92
2022-08-01T15:15:35.094Z,1.45
2022-08-01T15:18:01.519Z,1.60
2022-08-01T15:20:28.025Z,1.30
2022-08-01T15:22:55.086Z,1.38
2022-08-01T15:25:21.560Z,2.28
2022-08-01T15:27:48.390Z,2.08
2022-08-01T15:30:14.777Z,1.90
2022-08-01T15:32:41.163Z,2.55
2022-08-01T15:35:07.944Z,2.47
2022-08-01T15:37:35.187Z,2.30
2022-08-01T15:40:04.219Z,2.45
2022-08-01T15:42:30.635Z,2.67
2022-08-01T15:44:57.026Z,2.40
2022-08-01T15:47:24.960Z,1.95
2022-08-01T15:49:52.391Z,1.95
2022-08-01T15:52:21.785Z,1.65
2022-08-01T15:54:49.960Z,1.63
2022-08-01T15:57:16.570Z,1.90
2022-08-01T15:59:42.991Z,2.47
2022-08-01T16:02:09.867Z,1.70
2022-08-01T16:04:38.960Z,1.80
2022-08-01T16:07:06.114Z,2.72
2022-08-01T16:09:32.526Z,3.05
2022-08-01T16:11:58.927Z,2.42
2022-08-01T16:14:25.329Z,2.47
2022-08-01T16:16:51.746Z,2.70
2022-08-01T16:19:19.469Z,2.20
2022-08-01T16:21:47.899Z,1.70
2022-08-01T16:24:14.540Z,1.80
2022-08-01T16:26:41.106Z,2.17
2022-08-01T16:29:07.561Z,2.13
2022-08-01T16:31:43.788Z,2.30
2022-08-01T16:34:21.185Z,3.13
2022-08-01T16:36:50.175Z,2.05
2022-08-01T16:39:22.439Z,2.60
2022-08-01T16:41:49.806Z,5.85
2022-08-01T16:47:02.964Z,3.55
2022-08-01T16:49:29.579Z,2.03
2022-08-01T16:51:55.993Z,3.40
2022-08-01T16:54:25.429Z,2.25
2022-08-01T16:56:52.674Z,3.53
2022-08-01T16:59:19.064Z,2.88
2022-08-01T17:01:59.167Z,2.28
2022-08-01T17:04:28.119Z,1.70
2022-08-01T17:06:54.517Z,1.90
2022-08-01T17:09:20.977Z,1.70
2022-08-01T17:11:47.413Z,1.80
2022-08-01T17:14:14.525Z,1.67
2022-08-01T17:16:41.658Z,2.10
2022-08-01T17:19:08.057Z,2.10
2022-08-01T17:21:34.466Z,2.20
2022-08-01T17:24:00.989Z,2.05
2022-08-01T17:26:27.421Z,2.20
2022-08-01T17:28:53.822Z,1.90
2022-08-01T17:31:20.332Z,2.53
2022-08-01T17:33:49.518Z,2.13
2022-08-01T17:36:20.997Z,2.10
2022-08-01T17:38:47.514Z,1.85
2022-08-01T17:41:14.038Z,2.25
2022-08-01T17:43:40.492Z,2.08
2022-08-01T17:46:06.897Z,2.10
2022-08-01T17:48:33.307Z,2.38
2022-08-01T17:50:59.781Z,2.15
2022-08-01T17:53:26.204Z,2.20
2022-08-01T17:55:57.206Z,2.17
2022-08-01T17:58:48.819Z,2.45
2022-08-01T18:01:12.052Z,1.90
2022-08-01T18:03:41.007Z,2.30
2022-08-01T18:06:08.336Z,1.95
2022-08-01T18:08:35.378Z,2.17
2022-08-01T18:11:01.838Z,2.35
2022-08-01T18:13:29.270Z,2.30
2022-08-01T18:15:56.319Z,2.45
2022-08-01T18:18:32.744Z,2.63
2022-08-01T18:21:01.137Z,2.72
2022-08-01T18:23:27.654Z,2.83
2022-08-01T18:25:54.204Z,2.38
2022-08-01T18:28:30.724Z,2.10
2022-08-01T18:31:00.793Z,2.22
2022-08-01T18:33:27.301Z,2.15
2022-08-01T18:35:54.320Z,2.40
2022-08-01T18:38:20.727Z,2.20
2022-08-01T18:40:50.545Z,2.40
2022-08-01T18:43:17.014Z,2.50
2022-08-01T18:45:43.471Z,2.15
2022-08-01T18:48:11.184Z,2.08
2022-08-01T18:50:37.663Z,2.03
2022-08-01T18:53:04.064Z,2.13
2022-08-01T18:55:30.559Z,2.22
2022-08-01T18:57:56.944Z,2.05
2022-08-01T19:00:23.376Z,2.10
2022-08-01T19:02:49.783Z,2.22
2022-08-01T19:05:16.211Z,2.22
2022-08-01T19:08:04.884Z,2.20
2022-08-01T19:10:28.945Z,2.10
2022-08-01T19:12:55.378Z,2.20
2022-08-01T19:15:21.794Z,2.42
2022-08-01T19:17:48.571Z,2.28
2022-08-01T19:20:15.117Z,2.08
2022-08-01T19:22:41.681Z,2.10
2022-08-01T19:25:08.515Z,2.03
2022-08-01T19:27:37.508Z,3.00
2022-08-01T19:30:04.517Z,2.42
2022-08-01T19:32:34.243Z,2.53
2022-08-01T19:35:08.947Z,2.70
2022-08-01T19:37:35.393Z,2.03
2022-08-01T19:40:01.760Z,2.20
2022-08-01T19:42:29.160Z,2.67
2022-08-01T19:44:55.809Z,3.13
2022-08-01T19:47:22.297Z,3.10
2022-08-01T19:49:49.043Z,3.22
2022-08-01T19:52:17.719Z,2.72
2022-08-01T19:54:45.432Z,3.47
2022-08-01T19:57:15.610Z,3.40
2022-08-01T19:59:45.537Z,3.55
2022-08-01T20:02:15.414Z,3.50
2022-08-01T20:04:42.686Z,3.50
2022-08-01T20:07:09.484Z,4.63
2022-08-01T20:09:36.822Z,3.28
2022-08-01T20:12:03.358Z,3.40
2022-08-01T20:14:29.839Z,2.97
2022-08-01T20:16:56.439Z,3.20
2022-08-01T20:19:25.959Z,3.33
2022-08-01T20:22:03.214Z,3.33
2022-08-01T20:24:38.036Z,2.95
2022-08-01T20:27:06.420Z,3.45
2022-08-01T20:29:33.261Z,3.13
2022-08-01T20:32:00.108Z,2.97
2022-08-01T20:34:27.314Z,4.07
2022-08-01T20:36:56.412Z,2.88
2022-08-01T20:39:23.810Z,2.78
2022-08-01T20:41:59.579Z,2.58
2022-08-01T20:44:26.916Z,2.78
2022-08-01T20:46:54.302Z,2.72
2022-08-01T20:49:21.321Z,4.63
2022-08-01T20:51:50.567Z,3.60
2022-08-01T20:54:16.985Z,3.15
2022-08-01T20:56:58.982Z,2.75
2022-08-01T20:59:54.528Z,3.25
2022-08-01T21:03:01.259Z,3.20
2022-08-01T21:05:30.874Z,2.60
2022-08-01T21:08:13.232Z,3.30
2022-08-01T21:13:12.511Z,2.95
2022-08-01T21:16:22.201Z,3.13
2022-08-01T21:18:58.053Z,2.92
2022-08-01T21:21:30.110Z,2.78
2022-08-01T21:24:05.889Z,3.08
2022-08-01T21:26:35.568Z,2.90
2022-08-01T21:29:06.354Z,3.30
2022-08-01T21:31:40.893Z,3.25
2022-08-01T21:34:08.137Z,3.25
2022-08-01T21:36:35.771Z,3.00
2022-08-01T21:39:04.770Z,3.17
2022-08-01T21:42:05.003Z,4.22
2022-08-01T21:44:18.196Z,3.63
2022-08-01T21:46:47.033Z,3.90
2022-08-01T21:49:13.537Z,4.32
2022-08-01T21:51:51.712Z,3.20
2022-08-01T21:54:24.650Z,3.60
2022-08-01T21:57:08.909Z,3.55
2022-08-01T21:59:51.228Z,3.92
2022-08-01T22:05:13.982Z,4.22
2022-08-01T22:07:48.541Z,3.75
2022-08-01T22:10:19.482Z,3.83
2022-08-01T22:12:46.841Z,4.03
2022-08-01T22:15:14.858Z,4.78
2022-08-01T22:17:41.953Z,5.90
2022-08-01T22:20:09.183Z,4.88
2022-08-01T22:22:50.866Z,4.28
2022-08-01T22:25:19.909Z,4.35
2022-08-01T22:28:06.283Z,4.75
2022-08-01T22:30:34.271Z,6.25
2022-08-01T22:33:07.112Z,4.70
2022-08-01T22:35:43.074Z,5.15
2022-08-01T22:38:10.131Z,5.10
2022-08-01T22:40:40.571Z,5.68
2022-08-01T22:43:17.178Z,7.70
2022-08-01T22:45:54.294Z,6.10
2022-08-01T22:48:25.700Z,6.43
2022-08-01T22:51:05.838Z,6.03
2022-08-01T22:53:44.393Z,5.28
2022-08-01T22:56:11.884Z,5.57
2022-08-01T22:58:40.235Z,5.97
2022-08-01T23:01:10.625Z,5.85
2022-08-01T23:03:40.545Z,5.70
2022-08-01T23:06:16.873Z,5.85
2022-08-01T23:08:45.933Z,6.25
2022-08-01T23:11:12.992Z,6.65
2022-08-01T23:13:39.834Z,5.38
2022-08-01T23:16:06.274Z,5.47
2022-08-01T23:18:32.811Z,5.30
2022-08-01T23:21:02.125Z,5.80
2022-08-01T23:23:30.723Z,7.15
2022-08-01T23:25:58.817Z,6.78
2022-08-01T23:28:26.149Z,6.50
2022-08-01T23:30:52.739Z,6.63
2022-08-01T23:33:19.254Z,6.05
2022-08-01T23:35:45.883Z,5.60
2022-08-01T23:38:15.637Z,6.03
2022-08-01T23:40:42.318Z,6.00
2022-08-01T23:43:16.733Z,5.47
2022-08-01T23:46:04.371Z,5.80
2022-08-01T23:48:35.019Z,6.65
2022-08-01T23:51:02.354Z,5.72
2022-08-01T23:53:31.096Z,6.25
2022-08-01T23:55:58.716Z,6.47
2022-08-01T23:58:25.250Z,6.30
